createdAt,value
2023-05-04T00:00:38.442Z,11.64
2023-05-04T00:01:33.991Z,11.66
2023-05-04T00:02:29.663Z,11.61
2023-05-04T00:03:25.250Z,11.61
2023-05-04T00:04:20.656Z,11.61
2023-05-04T00:05:16.170Z,11.58
2023-05-04T00:06:11.696Z,11.58
2023-05-04T00:07:07.238Z,11.62
2023-05-04T00:08:02.791Z,11.58
2023-05-04T00:08:58.323Z,11.58
2023-05-04T00:09:53.848Z,11.55
2023-05-04T00:10:49.391Z,11.56
2023-05-04T00:11:44.925Z,11.66
2023-05-04T00:12:40.487Z,11.64
2023-05-04T00:13:35.991Z,11.61
2023-05-04T00:14:31.536Z,11.62
2023-05-04T00:15:27.072Z,11.66
2023-05-04T00:16:22.723Z,11.56
2023-05-04T00:17:18.190Z,11.56
2023-05-04T00:18:13.726Z,11.59
2023-05-04T00:18:58.387Z,11.54
2023-05-04T00:19:53.938Z,11.51
2023-05-04T00:20:49.487Z,11.55
2023-05-04T00:21:45.028Z,11.55
2023-05-04T00:22:40.567Z,11.54
2023-05-04T00:23:36.165Z,11.52
2023-05-04T00:24:31.642Z,11.55
2023-05-04T00:25:27.174Z,11.51
2023-05-04T00:26:22.714Z,11.49
2023-05-04T00:27:18.260Z,11.55
2023-05-04T00:28:13.813Z,11.52
2023-05-04T00:29:09.338Z,11.56
2023-05-04T00:30:04.982Z,11.56
2023-05-04T00:31:00.408Z,11.51
2023-05-04T00:31:56.113Z,11.49
2023-05-04T00:32:51.538Z,11.56
2023-05-04T00:33:47.068Z,11.46
2023-05-04T00:34:42.630Z,11.54
2023-05-04T00:35:38.153Z,11.46
2023-05-04T00:36:33.681Z,11.46
2023-05-04T00:37:29.256Z,11.51
2023-05-04T00:38:24.789Z,11.54
2023-05-04T00:39:20.360Z,11.51
2023-05-04T00:40:15.865Z,11.54
2023-05-04T00:41:11.406Z,11.52
2023-05-04T00:42:06.940Z,11.49
2023-05-04T00:43:02.474Z,11.45
2023-05-04T00:43:58.004Z,11.45
2023-05-04T00:44:53.556Z,11.41
2023-05-04T00:45:49.119Z,11.36
2023-05-04T00:46:44.658Z,11.40
2023-05-04T00:47:40.269Z,11.36
2023-05-04T00:48:35.735Z,11.38
2023-05-04T00:49:31.268Z,11.36
2023-05-04T00:50:26.810Z,11.34
2023-05-04T00:51:22.342Z,11.41
2023-05-04T00:52:17.882Z,11.36
2023-05-04T00:53:13.425Z,11.38
2023-05-04T00:54:08.960Z,11.43
2023-05-04T00:55:04.512Z,11.33
2023-05-04T00:56:00.036Z,11.41
2023-05-04T00:56:55.576Z,11.31
2023-05-04T00:57:51.135Z,11.30
2023-05-04T00:58:46.671Z,11.33
2023-05-04T00:59:42.208Z,11.28
2023-05-04T01:00:37.779Z,11.33
2023-05-04T01:01:33.337Z,11.28
2023-05-04T01:02:17.949Z,11.34
2023-05-04T01:03:13.581Z,11.28
2023-05-04T01:04:09.124Z,11.36
2023-05-04T01:05:04.606Z,11.33
2023-05-04T01:06:01.159Z,11.33
2023-05-04T01:06:56.706Z,11.30
2023-05-04T01:07:52.235Z,11.30
2023-05-04T01:08:47.808Z,11.36
2023-05-04T01:09:43.346Z,11.27
2023-05-04T01:10:38.885Z,11.28
2023-05-04T01:11:34.407Z,11.23
2023-05-04T01:12:29.968Z,11.33
2023-05-04T01:13:25.484Z,11.31
2023-05-04T01:14:21.031Z,11.19
2023-05-04T01:15:16.582Z,11.31
2023-05-04T01:16:12.808Z,11.33
2023-05-04T01:17:08.410Z,11.27
2023-05-04T01:18:03.872Z,11.22
2023-05-04T01:18:59.340Z,11.20
2023-05-04T01:19:54.898Z,11.18
2023-05-04T01:20:50.425Z,11.23
2023-05-04T01:21:45.958Z,11.18
2023-05-04T01:22:41.510Z,11.13
2023-05-04T01:23:37.034Z,11.12
2023-05-04T01:24:32.569Z,11.19
2023-05-04T01:25:28.109Z,11.19
2023-05-04T01:26:23.685Z,11.13
2023-05-04T01:27:19.176Z,11.19
2023-05-04T01:28:14.706Z,11.08
2023-05-04T01:29:10.242Z,11.13
2023-05-04T01:30:06.113Z,11.11
2023-05-04T01:31:01.336Z,11.04
2023-05-04T01:31:56.869Z,11.11
2023-05-04T01:32:52.415Z,11.05
2023-05-04T01:33:47.940Z,11.08
2023-05-04T01:34:43.473Z,11.01
2023-05-04T01:35:39.009Z,11.04
2023-05-04T01:36:34.548Z,11.05
2023-05-04T01:37:30.077Z,11.04
2023-05-04T01:38:25.615Z,11.08
2023-05-04T01:39:21.147Z,11.01
2023-05-04T01:40:16.692Z,11.05
2023-05-04T01:41:12.225Z,11.09
2023-05-04T01:42:07.812Z,10.97
2023-05-04T01:43:03.337Z,10.90
2023-05-04T01:43:58.862Z,10.94
2023-05-04T01:44:54.409Z,10.85
2023-05-04T01:45:49.987Z,10.83
2023-05-04T01:46:45.485Z,10.90
2023-05-04T01:47:41.085Z,10.95
2023-05-04T01:48:36.542Z,10.91
2023-05-04T01:49:32.082Z,10.90
2023-05-04T01:50:27.612Z,10.95
2023-05-04T01:51:23.139Z,10.82
2023-05-04T01:52:18.727Z,10.97
2023-05-04T01:53:14.257Z,10.85
2023-05-04T01:54:09.793Z,10.85
2023-05-04T01:55:05.328Z,10.87
2023-05-04T01:56:00.867Z,10.86
2023-05-04T01:56:56.390Z,10.83
2023-05-04T01:57:51.956Z,10.86
2023-05-04T01:58:47.476Z,10.90
2023-05-04T01:59:32.135Z,10.83
2023-05-04T02:00:27.678Z,10.86
2023-05-04T02:01:23.221Z,10.83
2023-05-04T02:02:18.755Z,10.82
2023-05-04T02:03:14.383Z,10.72
2023-05-04T02:04:09.966Z,10.83
2023-05-04T02:05:05.390Z,10.75
2023-05-04T02:06:00.925Z,10.73
2023-05-04T02:06:56.459Z,10.72
2023-05-04T02:07:52.013Z,10.85
2023-05-04T02:08:36.689Z,10.78
2023-05-04T02:09:32.215Z,10.78
2023-05-04T02:10:27.770Z,10.72
2023-05-04T02:11:23.305Z,10.78
2023-05-04T02:12:18.890Z,10.75
2023-05-04T02:13:14.488Z,10.70
2023-05-04T02:14:09.963Z,10.73
2023-05-04T02:15:05.491Z,10.76
2023-05-04T02:16:01.061Z,10.78
2023-05-04T02:16:56.585Z,10.72
2023-05-04T02:17:52.259Z,10.68
2023-05-04T02:18:47.676Z,10.72
2023-05-04T02:19:43.232Z,10.68
2023-05-04T02:20:38.766Z,10.68
2023-05-04T02:21:34.310Z,10.72
2023-05-04T02:22:29.845Z,10.61
2023-05-04T02:23:25.393Z,10.67
2023-05-04T02:24:20.917Z,10.68
2023-05-04T02:25:16.480Z,10.73
2023-05-04T02:26:12.023Z,10.61
2023-05-04T02:27:07.558Z,10.61
2023-05-04T02:27:52.236Z,10.61
2023-05-04T02:28:47.790Z,10.55
2023-05-04T02:29:43.318Z,10.58
2023-05-04T02:30:38.854Z,10.55
2023-05-04T02:31:34.425Z,10.55
2023-05-04T02:32:29.962Z,10.62
2023-05-04T02:33:25.490Z,10.55
2023-05-04T02:34:21.036Z,10.61
2023-05-04T02:35:16.579Z,10.58
2023-05-04T02:36:12.114Z,10.57
2023-05-04T02:37:07.787Z,10.55
2023-05-04T02:38:03.220Z,10.52
2023-05-04T02:38:58.753Z,10.60
2023-05-04T02:39:54.276Z,10.60
2023-05-04T02:40:49.811Z,10.61
2023-05-04T02:41:45.350Z,10.52
2023-05-04T02:42:40.893Z,10.54
2023-05-04T02:43:36.433Z,10.48
2023-05-04T02:44:31.974Z,10.61
2023-05-04T02:45:27.520Z,10.57
2023-05-04T02:46:23.287Z,10.60
2023-05-04T02:47:18.642Z,10.58
2023-05-04T02:48:03.353Z,10.55
2023-05-04T02:48:58.842Z,10.57
2023-05-04T02:49:54.384Z,10.45
2023-05-04T02:50:49.911Z,10.41
2023-05-04T02:51:45.460Z,10.41
2023-05-04T02:52:41.000Z,10.41
2023-05-04T02:53:36.528Z,10.45
2023-05-04T02:54:32.122Z,10.41
2023-05-04T02:55:27.665Z,10.49
2023-05-04T02:56:23.180Z,10.35
2023-05-04T02:57:18.715Z,10.39
2023-05-04T02:58:03.372Z,10.42
2023-05-04T02:58:58.905Z,10.45
2023-05-04T02:59:54.529Z,10.35
2023-05-04T03:00:50.135Z,10.34
2023-05-04T03:01:45.528Z,10.31
2023-05-04T03:02:41.125Z,10.35
2023-05-04T03:03:36.579Z,10.27
2023-05-04T03:04:32.216Z,10.38
2023-05-04T03:05:27.648Z,10.39
2023-05-04T03:06:23.195Z,10.36
2023-05-04T03:07:18.719Z,10.34
2023-05-04T03:08:14.262Z,10.35
2023-05-04T03:08:58.927Z,10.31
2023-05-04T03:09:54.483Z,10.34
2023-05-04T03:10:50.045Z,10.28
2023-05-04T03:11:34.717Z,10.30
2023-05-04T03:12:30.297Z,10.35
2023-05-04T03:13:25.794Z,10.38
2023-05-04T03:14:10.449Z,10.35
2023-05-04T03:15:06.000Z,10.30
2023-05-04T03:16:01.550Z,10.23
2023-05-04T03:16:57.203Z,10.42
2023-05-04T03:17:52.675Z,10.27
2023-05-04T03:18:58.903Z,10.27
2023-05-04T03:19:54.436Z,10.28
2023-05-04T03:20:49.978Z,10.31
2023-05-04T03:21:45.511Z,10.31
2023-05-04T03:22:41.058Z,10.35
2023-05-04T03:23:36.593Z,10.23
2023-05-04T03:24:32.136Z,10.34
2023-05-04T03:25:27.681Z,10.27
2023-05-04T03:26:23.223Z,10.21
2023-05-04T03:27:18.753Z,10.20
2023-05-04T03:28:14.292Z,10.20
2023-05-04T03:29:09.819Z,10.18
2023-05-04T03:30:05.603Z,10.16
2023-05-04T03:31:00.920Z,10.24
2023-05-04T03:31:56.481Z,10.24
2023-05-04T03:32:52.038Z,10.18
2023-05-04T03:33:47.510Z,10.20
2023-05-04T03:34:43.048Z,10.17
2023-05-04T03:35:38.590Z,10.08
2023-05-04T03:36:34.128Z,10.09
2023-05-04T03:37:29.669Z,10.05
2023-05-04T03:38:25.231Z,10.12
2023-05-04T03:39:20.777Z,10.12
2023-05-04T03:40:16.327Z,10.08
2023-05-04T03:41:11.868Z,10.14
2023-05-04T03:42:07.393Z,10.16
2023-05-04T03:43:02.929Z,10.08
2023-05-04T03:43:58.460Z,10.06
2023-05-04T03:44:54.050Z,10.05
2023-05-04T03:45:49.612Z,10.12
2023-05-04T03:46:45.192Z,10.09
2023-05-04T03:47:40.646Z,10.02
2023-05-04T03:48:36.178Z,10.09
2023-05-04T03:49:31.720Z,10.01
2023-05-04T03:50:27.266Z,9.96
2023-05-04T03:51:22.810Z,10.03
2023-05-04T03:52:18.337Z,9.99
2023-05-04T03:53:13.887Z,10.02
2023-05-04T03:54:09.423Z,9.99
2023-05-04T03:55:04.963Z,9.99
2023-05-04T03:56:00.500Z,10.01
2023-05-04T03:56:56.065Z,9.99
2023-05-04T03:57:51.588Z,9.98
2023-05-04T03:58:36.279Z,9.98
2023-05-04T03:59:31.796Z,9.98
2023-05-04T04:00:27.338Z,9.99
2023-05-04T04:01:22.894Z,9.98
2023-05-04T04:02:18.485Z,9.85
2023-05-04T04:03:14.158Z,9.90
2023-05-04T04:04:09.509Z,9.88
2023-05-04T04:04:54.173Z,9.98
2023-05-04T04:05:49.698Z,9.85
2023-05-04T04:06:45.234Z,9.93
2023-05-04T04:07:40.758Z,9.90
2023-05-04T04:08:36.303Z,9.90
2023-05-04T04:09:31.846Z,9.93
2023-05-04T04:10:27.378Z,9.93
2023-05-04T04:11:22.925Z,9.85
2023-05-04T04:12:18.497Z,9.85
2023-05-04T04:13:14.135Z,9.87
2023-05-04T04:14:09.554Z,9.94
2023-05-04T04:15:05.128Z,9.84
2023-05-04T04:16:00.730Z,9.91
2023-05-04T04:16:56.230Z,9.93
2023-05-04T04:17:51.884Z,9.78
2023-05-04T04:18:47.305Z,9.88
2023-05-04T04:19:42.835Z,9.91
2023-05-04T04:20:38.374Z,9.94
2023-05-04T04:21:33.923Z,9.84
2023-05-04T04:22:18.590Z,9.98
2023-05-04T04:23:14.130Z,9.85
2023-05-04T04:24:09.659Z,9.80
2023-05-04T04:25:05.230Z,9.85
2023-05-04T04:26:00.750Z,9.88
2023-05-04T04:26:56.288Z,9.91
2023-05-04T04:27:51.842Z,9.88
2023-05-04T04:28:47.368Z,9.81
2023-05-04T04:29:42.944Z,9.84
2023-05-04T04:30:38.437Z,9.87
2023-05-04T04:31:34.048Z,9.81
2023-05-04T04:32:29.552Z,9.84
2023-05-04T04:33:25.121Z,9.80
2023-05-04T04:34:20.628Z,9.88
2023-05-04T04:35:16.186Z,9.88
2023-05-04T04:36:11.718Z,9.91
2023-05-04T04:37:07.263Z,9.85
2023-05-04T04:37:51.923Z,9.83
2023-05-04T04:38:47.469Z,9.80
2023-05-04T04:39:43.031Z,9.88
2023-05-04T04:40:38.563Z,9.87
2023-05-04T04:41:34.064Z,9.90
2023-05-04T04:42:29.601Z,9.85
2023-05-04T04:43:25.153Z,9.90
2023-05-04T04:44:20.686Z,9.94
2023-05-04T04:45:16.224Z,9.96
2023-05-04T04:46:00.891Z,9.88
2023-05-04T04:46:56.519Z,9.88
2023-05-04T04:47:52.016Z,9.91
2023-05-04T04:48:47.518Z,9.87
2023-05-04T04:49:43.061Z,9.90
2023-05-04T04:50:27.714Z,9.91
2023-05-04T04:51:23.271Z,9.91
2023-05-04T04:52:18.800Z,9.99
2023-05-04T04:53:14.359Z,9.88
2023-05-04T04:54:09.909Z,9.93
2023-05-04T04:55:05.482Z,10.03
2023-05-04T04:56:01.011Z,9.90
2023-05-04T04:56:56.576Z,10.01
2023-05-04T04:57:52.191Z,9.99
2023-05-04T04:58:47.776Z,9.98
2023-05-04T04:59:43.283Z,9.99
2023-05-04T05:00:38.834Z,9.99
2023-05-04T05:01:34.377Z,10.01
2023-05-04T05:02:29.928Z,9.98
2023-05-04T05:03:25.446Z,9.93
2023-05-04T05:04:21.060Z,9.98
2023-05-04T05:05:16.617Z,9.93
2023-05-04T05:06:12.049Z,9.99
2023-05-04T05:07:07.579Z,10.01
2023-05-04T05:08:03.122Z,9.98
2023-05-04T05:08:58.661Z,9.98
2023-05-04T05:09:54.201Z,10.01
2023-05-04T05:10:49.740Z,10.06
2023-05-04T05:11:45.271Z,10.09
2023-05-04T05:12:29.952Z,10.05
2023-05-04T05:13:14.824Z,10.05
2023-05-04T05:14:10.132Z,10.02
2023-05-04T05:15:05.668Z,10.09
2023-05-04T05:16:01.217Z,10.08
2023-05-04T05:16:56.812Z,10.09
2023-05-04T05:17:41.460Z,10.06
2023-05-04T05:18:36.947Z,10.08
2023-05-04T05:19:32.600Z,10.09
2023-05-04T05:20:28.033Z,10.09
2023-05-04T05:21:23.596Z,10.06
2023-05-04T05:22:19.155Z,10.12
2023-05-04T05:23:14.772Z,10.14
2023-05-04T05:24:10.295Z,10.16
2023-05-04T05:25:05.869Z,10.21
2023-05-04T05:26:03.282Z,10.18
2023-05-04T05:26:56.948Z,10.14
2023-05-04T05:27:52.487Z,10.24
2023-05-04T05:28:48.025Z,10.18
2023-05-04T05:29:32.692Z,10.20
2023-05-04T05:30:28.251Z,10.23
2023-05-04T05:31:23.864Z,10.27
2023-05-04T05:32:19.350Z,10.34
2023-05-04T05:33:14.926Z,10.31
2023-05-04T05:34:10.420Z,10.24
2023-05-04T05:35:05.995Z,10.28
2023-05-04T05:36:01.510Z,10.18
2023-05-04T05:36:57.045Z,10.24
2023-05-04T05:37:52.625Z,10.34
2023-05-04T05:38:50.266Z,10.21
2023-05-04T05:39:43.677Z,10.34
2023-05-04T05:40:39.202Z,10.26
2023-05-04T05:41:34.745Z,10.31
2023-05-04T05:42:30.316Z,10.31
2023-05-04T05:43:25.830Z,10.35
2023-05-04T05:44:21.370Z,10.35
2023-05-04T05:45:16.915Z,10.35
2023-05-04T05:46:12.462Z,10.35
2023-05-04T05:47:07.980Z,10.35
2023-05-04T05:48:03.600Z,10.45
2023-05-04T05:48:59.098Z,10.49
2023-05-04T05:49:54.649Z,10.54
2023-05-04T05:50:50.236Z,10.48
2023-05-04T05:51:45.753Z,10.46
2023-05-04T05:52:30.436Z,10.57
2023-05-04T05:53:25.982Z,10.54
2023-05-04T05:54:21.571Z,10.58
2023-05-04T05:55:17.113Z,10.58
2023-05-04T05:56:12.646Z,10.49
2023-05-04T05:57:08.189Z,10.61
2023-05-04T05:57:52.844Z,10.60
2023-05-04T05:58:48.375Z,10.67
2023-05-04T05:59:43.914Z,10.75
2023-05-04T06:00:39.443Z,10.72
2023-05-04T06:01:34.972Z,10.73
2023-05-04T06:02:30.586Z,10.76
2023-05-04T06:03:26.171Z,10.78
2023-05-04T06:04:21.651Z,10.79
2023-05-04T06:05:17.182Z,10.86
2023-05-04T06:06:12.738Z,10.87
2023-05-04T06:07:08.269Z,10.91
2023-05-04T06:08:03.817Z,11.08
2023-05-04T06:08:59.340Z,11.04
2023-05-04T06:09:54.883Z,11.05
2023-05-04T06:10:50.420Z,11.05
2023-05-04T06:11:45.955Z,11.16
2023-05-04T06:12:41.616Z,11.16
2023-05-04T06:13:37.043Z,11.19
2023-05-04T06:14:32.574Z,11.20
2023-05-04T06:15:28.114Z,11.27
2023-05-04T06:16:23.676Z,11.34
2023-05-04T06:17:19.191Z,11.48
2023-05-04T06:18:14.745Z,11.51
2023-05-04T06:19:10.286Z,11.54
2023-05-04T06:20:06.390Z,11.51
2023-05-04T06:21:01.377Z,11.58
2023-05-04T06:21:56.930Z,11.61
2023-05-04T06:22:52.473Z,11.67
2023-05-04T06:23:48.024Z,11.71
2023-05-04T06:24:32.693Z,11.77
2023-05-04T06:25:28.241Z,11.84
2023-05-04T06:26:23.776Z,11.96
2023-05-04T06:27:19.318Z,12.03
2023-05-04T06:28:14.910Z,12.04
2023-05-04T06:29:10.460Z,12.03
2023-05-04T06:30:06.238Z,12.18
2023-05-04T06:31:01.542Z,12.23
2023-05-04T06:31:57.123Z,12.32
2023-05-04T06:32:52.638Z,12.44
2023-05-04T06:33:48.181Z,12.53
2023-05-04T06:34:43.720Z,12.66
2023-05-04T06:35:39.290Z,12.76
2023-05-04T06:36:34.827Z,12.88
2023-05-04T06:37:30.437Z,12.95
2023-05-04T06:38:25.989Z,12.98
2023-05-04T06:39:21.490Z,13.14
2023-05-04T06:40:17.050Z,13.24
2023-05-04T06:41:12.560Z,13.35
2023-05-04T06:41:57.160Z,13.29
2023-05-04T06:42:52.667Z,13.40
2023-05-04T06:43:48.178Z,13.45
2023-05-04T06:44:32.843Z,13.54
2023-05-04T06:45:28.402Z,13.49
2023-05-04T06:46:23.945Z,13.64
2023-05-04T06:47:19.451Z,13.75
2023-05-04T06:48:14.994Z,13.79
2023-05-04T06:49:10.541Z,13.82
2023-05-04T06:50:07.163Z,13.85
2023-05-04T06:51:03.296Z,13.86
2023-05-04T06:51:58.174Z,13.91
2023-05-04T06:52:53.782Z,14.12
2023-05-04T06:53:49.295Z,14.11
2023-05-04T06:54:44.825Z,14.15
2023-05-04T06:55:40.425Z,14.19
2023-05-04T06:56:35.960Z,14.27
2023-05-04T06:57:31.518Z,14.36
2023-05-04T06:58:27.046Z,14.44
2023-05-04T06:59:22.588Z,14.58
2023-05-04T07:00:07.488Z,14.59
2023-05-04T07:01:02.825Z,14.61
2023-05-04T07:01:58.319Z,14.74
2023-05-04T07:02:53.896Z,14.89
2023-05-04T07:03:49.465Z,14.99
2023-05-04T07:04:44.942Z,15.05
2023-05-04T07:05:40.473Z,15.15
2023-05-04T07:06:36.013Z,15.30
2023-05-04T07:07:31.543Z,15.38
2023-05-04T07:08:27.105Z,15.44
2023-05-04T07:09:22.644Z,15.63
2023-05-04T07:10:18.180Z,15.77
2023-05-04T07:11:13.721Z,15.87
2023-05-04T07:12:09.269Z,15.98
2023-05-04T07:13:04.840Z,15.96
2023-05-04T07:14:00.375Z,15.93
2023-05-04T07:14:55.931Z,16.08
2023-05-04T07:15:51.484Z,16.09
2023-05-04T07:16:47.034Z,16.28
2023-05-04T07:17:42.545Z,16.34
2023-05-04T07:18:38.066Z,16.47
2023-05-04T07:19:33.616Z,16.54
2023-05-04T07:20:29.192Z,16.61
2023-05-04T07:21:28.312Z,16.76
2023-05-04T07:22:20.240Z,16.77
2023-05-04T07:23:15.801Z,16.74
2023-05-04T07:24:11.398Z,16.87
2023-05-04T07:25:06.932Z,16.90
2023-05-04T07:26:02.457Z,16.95
2023-05-04T07:26:58.007Z,16.94
2023-05-04T07:27:53.574Z,16.99
2023-05-04T07:28:49.101Z,17.04
2023-05-04T07:29:44.648Z,17.02
2023-05-04T07:30:40.178Z,17.09
2023-05-04T07:31:47.281Z,17.14
2023-05-04T07:32:42.912Z,17.13
2023-05-04T07:33:38.321Z,17.22
2023-05-04T07:34:30.557Z,17.16
2023-05-04T07:35:18.529Z,17.10
2023-05-04T07:36:03.371Z,17.16
2023-05-04T07:36:58.767Z,17.17
2023-05-04T07:37:54.317Z,17.17
2023-05-04T07:38:49.869Z,17.27
2023-05-04T07:39:45.447Z,17.28
2023-05-04T07:40:40.958Z,17.31
2023-05-04T07:41:36.504Z,17.32
2023-05-04T07:42:35.051Z,17.34
2023-05-04T07:43:30.603Z,17.37
2023-05-04T07:44:26.130Z,17.19
2023-05-04T07:45:21.667Z,17.25
2023-05-04T07:46:17.260Z,17.28
2023-05-04T07:47:12.751Z,17.32
2023-05-04T07:48:08.397Z,17.45
2023-05-04T07:49:03.834Z,17.47
2023-05-04T07:49:59.386Z,17.46
2023-05-04T07:50:54.916Z,17.45
2023-05-04T07:51:50.454Z,17.49
2023-05-04T07:52:46.039Z,17.54
2023-05-04T07:53:41.532Z,17.54
2023-05-04T07:54:37.070Z,17.57
2023-05-04T07:55:32.624Z,17.62
2023-05-04T07:56:28.157Z,17.71
2023-05-04T07:57:23.680Z,17.69
2023-05-04T07:58:19.219Z,17.54
2023-05-04T07:59:14.761Z,17.56
2023-05-04T08:00:10.317Z,17.53
2023-05-04T08:01:05.855Z,17.69
2023-05-04T08:02:01.470Z,17.68
2023-05-04T08:02:56.976Z,17.76
2023-05-04T08:03:52.506Z,17.73
2023-05-04T08:04:48.047Z,17.75
2023-05-04T08:05:43.590Z,17.81
2023-05-04T08:06:39.135Z,17.86
2023-05-04T08:07:34.690Z,17.87
2023-05-04T08:08:30.225Z,17.91
2023-05-04T08:09:25.769Z,17.88
2023-05-04T08:10:21.299Z,17.91
2023-05-04T08:11:20.358Z,17.93
2023-05-04T08:12:01.512Z,17.97
2023-05-04T08:12:57.134Z,17.91
2023-05-04T08:13:52.588Z,17.86
2023-05-04T08:14:48.135Z,18.03
2023-05-04T08:15:43.684Z,18.01
2023-05-04T08:16:39.236Z,18.11
2023-05-04T08:17:34.862Z,18.23
2023-05-04T08:18:30.358Z,18.26
2023-05-04T08:19:25.904Z,18.23
2023-05-04T08:20:23.496Z,18.28
2023-05-04T08:21:16.997Z,18.26
2023-05-04T08:22:12.539Z,18.24
2023-05-04T08:23:08.075Z,18.20
2023-05-04T08:24:03.622Z,18.30
2023-05-04T08:24:59.182Z,18.31
2023-05-04T08:25:54.722Z,18.39
2023-05-04T08:27:00.036Z,18.34
2023-05-04T08:27:45.821Z,18.36
2023-05-04T08:28:41.366Z,18.42
2023-05-04T08:29:36.891Z,18.43
2023-05-04T08:30:32.437Z,18.45
2023-05-04T08:31:28.011Z,18.58
2023-05-04T08:32:23.623Z,18.63
2023-05-04T08:33:19.065Z,18.68
2023-05-04T08:34:14.630Z,18.86
2023-05-04T08:35:10.218Z,18.94
2023-05-04T08:36:05.798Z,19.17
2023-05-04T08:37:01.320Z,19.23
2023-05-04T08:37:56.852Z,19.26
2023-05-04T08:38:52.396Z,19.45
2023-05-04T08:39:47.943Z,19.57
2023-05-04T08:40:43.480Z,19.63
2023-05-04T08:41:28.141Z,19.71
2023-05-04T08:42:23.701Z,19.82
2023-05-04T08:43:19.221Z,19.92
2023-05-04T08:44:14.801Z,20.07
2023-05-04T08:45:10.320Z,20.26
2023-05-04T08:46:05.941Z,20.42
2023-05-04T08:47:01.410Z,20.60
2023-05-04T08:47:57.034Z,20.74
2023-05-04T08:48:52.538Z,20.77
2023-05-04T08:49:48.083Z,20.89
2023-05-04T08:50:43.623Z,20.92
2023-05-04T08:51:39.162Z,21.03
2023-05-04T08:52:34.707Z,21.10
2023-05-04T08:53:30.242Z,21.30
2023-05-04T08:54:25.801Z,21.43
2023-05-04T08:55:21.321Z,21.55
2023-05-04T08:56:16.861Z,21.58
2023-05-04T08:57:12.408Z,21.80
2023-05-04T08:58:07.964Z,21.91
2023-05-04T08:59:03.489Z,22.01
2023-05-04T08:59:59.049Z,22.18
2023-05-04T09:00:54.705Z,22.31
2023-05-04T09:01:50.169Z,22.44
2023-05-04T09:02:45.785Z,22.48
2023-05-04T09:03:41.330Z,22.66
2023-05-04T09:04:36.779Z,22.77
2023-05-04T09:05:32.330Z,22.98
2023-05-04T09:06:27.884Z,23.01
2023-05-04T09:07:23.419Z,23.22
2023-05-04T09:08:18.958Z,23.21
2023-05-04T09:09:14.524Z,23.34
2023-05-04T09:10:10.039Z,23.74
2023-05-04T09:11:05.601Z,24.19
2023-05-04T09:12:01.147Z,24.22
2023-05-04T09:12:56.784Z,24.26
2023-05-04T09:13:52.355Z,24.38
2023-05-04T09:14:47.791Z,24.41
2023-05-04T09:15:43.322Z,24.47
2023-05-04T09:16:38.904Z,24.63
2023-05-04T09:17:36.404Z,24.75
2023-05-04T09:18:30.023Z,24.84
2023-05-04T09:19:25.512Z,25.16
2023-05-04T09:20:21.065Z,25.38
2023-05-04T09:21:05.823Z,25.58
2023-05-04T09:22:01.288Z,25.59
2023-05-04T09:22:45.959Z,25.73
2023-05-04T09:23:41.574Z,25.82
2023-05-04T09:24:37.050Z,25.90
2023-05-04T09:25:32.595Z,26.00
2023-05-04T09:26:28.158Z,26.11
2023-05-04T09:27:23.713Z,26.21
2023-05-04T09:28:19.260Z,26.30
2023-05-04T09:29:14.836Z,26.48
2023-05-04T09:30:10.386Z,26.52
2023-05-04T09:31:05.959Z,26.76
2023-05-04T09:32:01.467Z,26.83
2023-05-04T09:32:57.062Z,26.95
2023-05-04T09:33:53.661Z,27.08
2023-05-04T09:34:48.127Z,27.25
2023-05-04T09:35:43.659Z,27.37
2023-05-04T09:36:39.210Z,27.58
2023-05-04T09:37:34.851Z,27.54
2023-05-04T09:38:30.380Z,27.87
2023-05-04T09:39:25.936Z,27.97
2023-05-04T09:40:21.479Z,28.07
2023-05-04T09:41:17.031Z,28.20
2023-05-04T09:42:12.581Z,28.31
2023-05-04T09:43:08.136Z,28.30
2023-05-04T09:44:03.698Z,28.46
2023-05-04T09:44:59.281Z,28.44
2023-05-04T09:45:54.848Z,28.57
2023-05-04T09:46:50.391Z,28.69
2023-05-04T09:47:45.947Z,28.80
2023-05-04T09:48:41.455Z,28.89
2023-05-04T09:49:37.011Z,28.98
2023-05-04T09:50:32.560Z,28.98
2023-05-04T09:51:28.111Z,29.17
2023-05-04T09:52:23.659Z,29.12
2023-05-04T09:53:19.204Z,29.31
2023-05-04T09:54:14.752Z,29.44
2023-05-04T09:55:10.312Z,29.47
2023-05-04T09:56:08.152Z,29.59
2023-05-04T09:57:01.404Z,29.77
2023-05-04T09:57:56.964Z,29.86
2023-05-04T09:58:52.499Z,29.93
2023-05-04T09:59:48.043Z,29.95
2023-05-04T10:00:43.623Z,29.99
2023-05-04T10:01:39.280Z,29.98
2023-05-04T10:02:34.757Z,30.00
2023-05-04T10:03:30.259Z,30.07
2023-05-04T10:04:25.816Z,30.17
2023-05-04T10:05:21.430Z,30.21
2023-05-04T10:06:16.910Z,30.35
2023-05-04T10:07:12.455Z,30.46
2023-05-04T10:08:08.009Z,30.53
2023-05-04T10:09:03.584Z,30.40
2023-05-04T10:09:48.231Z,30.48
2023-05-04T10:10:43.779Z,30.46
2023-05-04T10:11:39.329Z,30.68
2023-05-04T10:12:34.962Z,30.68
2023-05-04T10:13:30.459Z,30.60
2023-05-04T10:14:26.005Z,30.56
2023-05-04T10:15:21.553Z,30.75
2023-05-04T10:16:17.277Z,30.73
2023-05-04T10:17:13.941Z,30.93
2023-05-04T10:18:08.210Z,30.77
2023-05-04T10:19:03.754Z,30.58
2023-05-04T10:19:59.298Z,30.59
2023-05-04T10:20:54.850Z,30.80
2023-05-04T10:21:50.403Z,30.96
2023-05-04T10:22:45.974Z,30.96
2023-05-04T10:23:41.525Z,31.20
2023-05-04T10:24:37.086Z,31.29
2023-05-04T10:25:32.617Z,31.45
2023-05-04T10:26:28.167Z,31.51
2023-05-04T10:27:23.735Z,31.29
2023-05-04T10:28:19.300Z,31.30
2023-05-04T10:29:14.848Z,31.17
2023-05-04T10:30:10.400Z,31.14
2023-05-04T10:31:05.951Z,31.32
2023-05-04T10:32:01.703Z,31.38
2023-05-04T10:32:46.234Z,31.48
2023-05-04T10:33:41.726Z,31.60
2023-05-04T10:34:37.273Z,31.57
2023-05-04T10:35:32.824Z,31.57
2023-05-04T10:36:28.371Z,31.61
2023-05-04T10:37:23.945Z,31.78
2023-05-04T10:38:19.496Z,31.75
2023-05-04T10:39:15.068Z,31.51
2023-05-04T10:40:10.632Z,31.42
2023-05-04T10:41:06.178Z,31.48
2023-05-04T10:42:01.768Z,31.52
2023-05-04T10:42:57.307Z,31.54
2023-05-04T10:43:52.884Z,31.61
2023-05-04T10:44:48.417Z,31.60
2023-05-04T10:45:44.026Z,31.59
2023-05-04T10:46:39.500Z,31.38
2023-05-04T10:47:35.122Z,31.42
2023-05-04T10:48:30.623Z,31.34
2023-05-04T10:49:26.171Z,31.30
2023-05-04T10:50:21.715Z,31.24
2023-05-04T10:51:17.266Z,31.33
2023-05-04T10:52:12.817Z,31.51
2023-05-04T10:53:08.360Z,31.67
2023-05-04T10:54:03.917Z,31.49
2023-05-04T10:54:59.472Z,31.49
2023-05-04T10:55:55.016Z,31.54
2023-05-04T10:56:39.692Z,31.56
2023-05-04T10:57:35.224Z,31.46
2023-05-04T10:58:30.794Z,31.56
2023-05-04T10:59:26.337Z,31.39
2023-05-04T11:00:21.885Z,31.39
2023-05-04T11:01:17.451Z,31.33
2023-05-04T11:02:12.989Z,31.19
2023-05-04T11:03:08.638Z,31.26
2023-05-04T11:04:04.105Z,31.24
2023-05-04T11:04:59.666Z,31.11
2023-05-04T11:05:55.220Z,31.32
2023-05-04T11:06:50.782Z,31.20
2023-05-04T11:07:46.911Z,31.20
2023-05-04T11:08:42.462Z,31.41
2023-05-04T11:09:38.052Z,31.42
2023-05-04T11:10:33.585Z,31.30
2023-05-04T11:11:29.133Z,31.19
2023-05-04T11:12:24.682Z,31.11
2023-05-04T11:13:20.291Z,31.14
2023-05-04T11:14:15.761Z,31.26
2023-05-04T11:15:11.329Z,31.49
2023-05-04T11:16:06.902Z,31.70
2023-05-04T11:17:03.875Z,31.82
2023-05-04T11:17:58.990Z,31.78
2023-05-04T11:18:54.546Z,31.68
2023-05-04T11:19:50.064Z,31.68
2023-05-04T11:20:45.630Z,31.76
2023-05-04T11:21:41.202Z,31.75
2023-05-04T11:22:36.711Z,31.91
2023-05-04T11:23:32.252Z,31.82
2023-05-04T11:24:27.799Z,31.75
2023-05-04T11:25:23.341Z,32.02
2023-05-04T11:26:18.898Z,31.95
2023-05-04T11:27:14.434Z,31.61
2023-05-04T11:28:10.021Z,31.78
2023-05-04T11:29:05.550Z,31.76
2023-05-04T11:30:01.140Z,31.79
2023-05-04T11:30:56.643Z,31.81
2023-05-04T11:31:52.299Z,31.79
2023-05-04T11:32:47.793Z,31.81
2023-05-04T11:33:43.289Z,31.81
2023-05-04T11:34:28.111Z,31.82
2023-05-04T11:35:23.494Z,31.84
2023-05-04T11:36:19.041Z,31.75
2023-05-04T11:37:14.596Z,31.71
2023-05-04T11:38:10.153Z,31.78
2023-05-04T11:39:05.695Z,31.59
2023-05-04T11:40:01.230Z,31.39
2023-05-04T11:40:56.783Z,31.42
2023-05-04T11:41:52.326Z,31.23
2023-05-04T11:42:47.927Z,31.10
2023-05-04T11:43:43.468Z,31.12
2023-05-04T11:44:39.013Z,31.20
2023-05-04T11:45:34.566Z,31.19
2023-05-04T11:46:30.124Z,31.29
2023-05-04T11:47:25.653Z,31.41
2023-05-04T11:48:22.205Z,31.57
2023-05-04T11:49:17.778Z,31.63
2023-05-04T11:50:13.387Z,31.76
2023-05-04T11:51:08.859Z,31.78
2023-05-04T11:52:04.409Z,31.76